Time;durP1;ratioP1;P1;durP2;ratioP2;P2;SDS_P1;SDS_P2;PMS_P1;PMS_P2;Temp;Humidity;BMP_temperature;BMP_pressure;BME280_temperature;BME280_humidity;BME280_pressure;Samples;Min_cycle;Max_cycle;Signal;HPM_P1;HPM_P2
2022/12/09 00:01:52;;;;;;;29.67;18.33;;;0.90;99.90;;;;;;5104726;27;20069;-82
2022/12/09 00:04:18;;;;;;;32.75;20.05;;;0.90;99.90;;;;;;5132022;27;20490;-82
2022/12/09 00:06:43;;;;;;;33.20;18.88;;;0.80;99.90;;;;;;5128277;27;20107;-83
2022/12/09 00:09:13;;;;;;;31.20;18.90;;;0.80;99.90;;;;;;5112903;27;20035;-82
2022/12/09 00:11:39;;;;;;;33.65;18.85;;;0.80;99.90;;;;;;5102912;28;20096;-82
2022/12/09 00:14:05;;;;;;;34.40;18.70;;;0.80;99.90;;;;;;5125304;27;20432;-83
2022/12/09 00:16:30;;;;;;;30.42;17.85;;;0.80;99.90;;;;;;5094128;28;20048;-82
2022/12/09 00:18:56;;;;;;;31.23;18.20;;;0.70;99.90;;;;;;5128984;27;20043;-82
2022/12/09 00:21:27;;;;;;;28.90;18.00;;;0.70;99.90;;;;;;5101109;27;20043;-83
2022/12/09 00:23:55;;;;;;;32.25;18.25;;;0.70;99.90;;;;;;5132417;27;20486;-82
2022/12/09 00:26:21;;;;;;;28.92;17.02;;;0.70;99.90;;;;;;5121534;28;20047;-82
2022/12/09 00:28:48;;;;;;;26.80;16.38;;;0.70;99.90;;;;;;5103015;28;20051;-82
2022/12/09 00:31:17;;;;;;;26.17;16.15;;;0.70;99.90;;;;;;5098910;28;20197;-82
2022/12/09 00:33:43;;;;;;;26.58;16.73;;;0.70;99.90;;;;;;5113100;28;20138;-82
2022/12/09 00:36:14;;;;;;;28.00;16.90;;;0.60;99.90;;;;;;5122531;28;20136;-82
2022/12/09 00:38:40;;;;;;;27.70;16.63;;;0.70;99.90;;;;;;5111532;28;20052;-83
2022/12/09 00:41:06;;;;;;;25.65;16.83;;;0.70;99.90;;;;;;5076822;28;20048;-82
2022/12/09 00:43:32;;;;;;;25.05;15.57;;;0.70;99.90;;;;;;5074404;28;20087;-82
2022/12/09 00:45:58;;;;;;;25.42;16.52;;;0.70;99.90;;;;;;5074155;28;20059;-83
2022/12/09 00:48:24;;;;;;;25.85;15.48;;;0.80;99.90;;;;;;5095991;28;20427;-82
2022/12/09 00:50:50;;;;;;;23.77;14.48;;;0.80;99.90;;;;;;5096190;28;20530;-82
2022/12/09 00:53:16;;;;;;;24.67;14.85;;;2.30;99.90;;;;;;5096316;28;20040;-82
2022/12/09 00:55:42;;;;;;;23.65;14.32;;;1.70;99.90;;;;;;5096148;28;20488;-83
2022/12/09 00:58:07;;;;;;;25.15;15.52;;;1.30;99.90;;;;;;5078625;28;20143;-82
2022/12/09 01:00:33;;;;;;;23.83;15.25;;;0.80;99.90;;;;;;5096268;28;20079;-82
2022/12/09 01:02:59;;;;;;;26.10;15.57;;;0.70;99.90;;;;;;5078071;28;20483;-82
2022/12/09 01:05:24;;;;;;;24.38;15.55;;;0.60;99.90;;;;;;5088341;27;20046;-82
2022/12/09 01:07:50;;;;;;;23.33;14.38;;;0.70;99.90;;;;;;5136813;27;20406;-83
2022/12/09 01:10:16;;;;;;;26.15;14.40;;;0.70;99.90;;;;;;5124733;27;20043;-82
2022/12/09 01:12:42;;;;;;;21.98;14.13;;;0.60;99.90;;;;;;5131448;27;20513;-82
2022/12/09 01:15:08;;;;;;;23.23;14.82;;;0.60;99.90;;;;;;5099938;27;20576;-82
2022/12/09 01:17:38;;;;;;;22.65;14.82;;;0.60;99.90;;;;;;5131195;27;20044;-82
2022/12/09 01:20:08;;;;;;;23.80;14.95;;;0.50;99.90;;;;;;5124814;27;20063;-82
2022/12/09 01:22:34;;;;;;;24.20;14.85;;;0.50;99.90;;;;;;5124329;27;20079;-83
2022/12/09 01:25:00;;;;;;;23.75;14.85;;;0.50;99.90;;;;;;5131943;27;20126;-82
2022/12/09 01:27:29;;;;;;;23.80;14.73;;;0.60;99.90;;;;;;5123969;27;20131;-83
2022/12/09 01:29:54;;;;;;;24.80;13.98;;;0.60;99.90;;;;;;5121921;27;20070;-82
2022/12/09 01:32:20;;;;;;;25.35;14.30;;;0.60;99.90;;;;;;5116088;27;20040;-82
2022/12/09 01:34:46;;;;;;;23.88;14.95;;;0.60;99.90;;;;;;5133653;27;20399;-82
2022/12/09 01:37:11;;;;;;;24.35;14.40;;;0.60;99.90;;;;;;5124469;27;20069;-82
2022/12/09 01:39:37;;;;;;;22.50;14.57;;;0.60;99.90;;;;;;5131324;27;20036;-83
2022/12/09 01:42:04;;;;;;;27.00;15.50;;;0.70;99.90;;;;;;5130527;27;20042;-83
2022/12/09 01:44:32;;;;;;;25.02;14.60;;;1.70;99.90;;;;;;5136860;27;20047;-82
2022/12/09 01:47:00;;;;;;;26.25;13.98;;;0.80;99.90;;;;;;5133957;27;20481;-83
2022/12/09 01:49:34;;;;;;;24.35;14.65;;;0.80;99.90;;;;;;5135369;27;20075;-82
2022/12/09 01:52:07;;;;;;;23.35;14.63;;;0.80;99.90;;;;;;5117963;27;20090;-81
2022/12/09 01:54:33;;;;;;;22.52;14.05;;;0.90;99.90;;;;;;5100607;28;20104;-83
2022/12/09 01:56:59;;;;;;;21.88;13.20;;;0.90;99.90;;;;;;5115508;28;20059;-82
2022/12/09 01:59:26;;;;;;;22.65;14.07;;;0.90;99.90;;;;;;5114461;28;20112;-83
2022/12/09 02:01:56;;;;;;;22.95;14.15;;;0.90;99.90;;;;;;5115265;28;20051;-82
2022/12/09 02:04:22;;;;;;;21.25;13.85;;;0.90;99.90;;;;;;5114367;28;20396;-82
2022/12/09 02:06:48;;;;;;;21.52;12.82;;;0.90;99.90;;;;;;5115329;28;20061;-83
2022/12/09 02:09:13;;;;;;;22.60;13.15;;;0.90;99.90;;;;;;5115866;27;20403;-82
2022/12/09 02:11:59;;;;;;;23.70;13.48;;;0.80;99.90;;;;;;5130041;27;20135;-82
2022/12/09 02:14:37;;;;;;;23.63;13.95;;;0.80;99.90;;;;;;5131511;27;20047;-82
2022/12/09 02:17:21;;;;;;;22.40;13.30;;;0.80;99.90;;;;;;5114314;27;20130;-82
2022/12/09 02:19:52;;;;;;;22.20;12.95;;;0.80;99.90;;;;;;5129594;27;20059;-82
2022/12/09 02:22:24;;;;;;;22.63;13.40;;;0.70;99.90;;;;;;5099285;27;20046;-82
2022/12/09 02:24:57;;;;;;;21.95;13.23;;;0.70;99.90;;;;;;5130557;27;20438;-82
2022/12/09 02:27:36;;;;;;;21.70;13.27;;;0.70;99.90;;;;;;5088201;28;20113;-82
2022/12/09 02:30:16;;;;;;;21.17;12.70;;;0.70;99.90;;;;;;5095935;28;20066;-82
2022/12/09 02:33:12;;;;;;;22.35;12.70;;;0.70;99.90;;;;;;5133681;27;20556;-82
2022/12/09 02:35:49;;;;;;;22.92;13.05;;;0.70;99.90;;;;;;5097743;28;20055;-82
2022/12/09 02:38:20;;;;;;;19.63;12.85;;;0.70;99.90;;;;;;5115843;28;20055;-82
2022/12/09 02:41:05;;;;;;;22.58;14.05;;;0.70;99.90;;;;;;5113609;27;20086;-83
2022/12/09 02:43:36;;;;;;;21.15;13.70;;;0.70;99.90;;;;;;5116376;27;20478;-82
2022/12/09 02:46:05;;;;;;;22.85;13.52;;;0.70;99.90;;;;;;5098291;27;20375;-82
2022/12/09 02:48:41;;;;;;;23.10;13.45;;;0.70;99.90;;;;;;5130949;27;20040;-82
2022/12/09 02:51:10;;;;;;;23.70;13.82;;;0.70;99.90;;;;;;5110741;27;20072;-82
2022/12/09 02:53:38;;;;;;;20.20;12.13;;;0.70;99.90;;;;;;5109167;27;20382;-82
2022/12/09 02:56:06;;;;;;;19.08;12.43;;;0.70;99.90;;;;;;5118164;27;20117;-82
2022/12/09 02:58:31;;;;;;;19.67;12.45;;;0.70;99.90;;;;;;5096886;28;20056;-83
2022/12/09 03:00:57;;;;;;;19.90;12.88;;;0.70;99.90;;;;;;5105631;27;20054;-82
2022/12/09 03:03:24;;;;;;;20.10;12.93;;;0.70;99.90;;;;;;5121494;27;20043;-82
2022/12/09 03:06:08;;;;;;;20.70;12.90;;;0.70;99.90;;;;;;5096987;27;20047;-82
2022/12/09 03:08:57;;;;;;;20.77;13.63;;;0.70;99.90;;;;;;5075390;28;20109;-82
2022/12/09 03:11:24;;;;;;;18.98;12.73;;;0.60;99.90;;;;;;5119903;27;20047;-82
2022/12/09 03:14:01;;;;;;;23.88;13.25;;;0.60;99.90;;;;;;5098952;28;20078;-82
2022/12/09 03:16:48;;;;;;;22.75;13.68;;;0.60;99.90;;;;;;5109672;27;20093;-82
2022/12/09 03:19:47;;;;;;;20.55;12.95;;;0.60;99.90;;;;;;5100730;28;20083;-82
2022/12/09 03:22:18;;;;;;;20.52;13.63;;;0.60;99.90;;;;;;5098858;27;20047;-82
2022/12/09 03:24:58;;;;;;;23.02;13.00;;;0.60;99.90;;;;;;5105281;28;20395;-83
2022/12/09 03:27:32;;;;;;;20.67;13.25;;;0.60;99.90;;;;;;5123655;27;20043;-82
2022/12/09 03:30:00;;;;;;;24.80;13.98;;;0.60;99.90;;;;;;5134265;27;20406;-82
2022/12/09 03:32:27;;;;;;;22.88;14.63;;;1.40;99.90;;;;;;5130466;27;20476;-82
2022/12/09 03:35:00;;;;;;;23.27;14.23;;;0.60;99.90;;;;;;5098881;27;20063;-82
2022/12/09 03:37:27;;;;;;;23.30;13.35;;;0.60;99.90;;;;;;5113790;27;20043;-82
2022/12/09 03:39:53;;;;;;;22.25;14.07;;;0.60;99.90;;;;;;5106369;28;20048;-82
2022/12/09 03:42:25;;;;;;;21.23;13.30;;;0.60;99.90;;;;;;5129341;27;20047;-82
2022/12/09 03:45:08;;;;;;;24.15;14.05;;;0.60;99.90;;;;;;5128977;27;20097;-82
2022/12/09 03:47:35;;;;;;;24.35;14.65;;;0.60;99.90;;;;;;5101919;27;20132;-83
2022/12/09 03:50:00;;;;;;;24.20;14.02;;;0.60;99.90;;;;;;5119297;27;20044;-82
2022/12/09 03:52:35;;;;;;;23.63;14.60;;;0.60;99.90;;;;;;5110398;27;20054;-82
2022/12/09 03:55:09;;;;;;;25.67;15.00;;;0.60;99.90;;;;;;5097048;28;20446;-82
2022/12/09 03:57:38;;;;;;;22.98;13.65;;;0.60;99.90;;;;;;5122610;27;20051;-82
2022/12/09 04:00:07;;;;;;;21.98;13.77;;;0.70;99.90;;;;;;5115021;27;20093;-82
2022/12/09 04:02:32;;;;;;;25.20;14.93;;;0.70;99.90;;;;;;5098087;28;20051;-82
2022/12/09 04:04:58;;;;;;;24.05;14.07;;;0.60;99.90;;;;;;5113200;27;20570;-82
2022/12/09 04:07:23;;;;;;;22.23;14.15;;;0.60;99.90;;;;;;5108416;28;20499;-82
2022/12/09 04:09:49;;;;;;;25.52;14.95;;;0.60;99.90;;;;;;5122638;27;20051;-82
2022/12/09 04:12:15;;;;;;;24.50;14.63;;;0.60;99.90;;;;;;5098238;28;20048;-82
2022/12/09 04:14:40;;;;;;;24.27;14.85;;;0.60;99.90;;;;;;5125232;27;20051;-82
2022/12/09 04:17:06;;;;;;;26.88;15.43;;;0.60;99.90;;;;;;5112157;27;20071;-82
2022/12/09 04:19:31;;;;;;;23.30;14.63;;;1.50;99.90;;;;;;5118069;27;20080;-82
2022/12/09 04:21:57;;;;;;;24.48;14.93;;;0.60;99.90;;;;;;5126730;27;20071;-82
2022/12/09 04:24:23;;;;;;;24.50;15.07;;;0.70;99.90;;;;;;5132342;27;20194;-82
2022/12/09 04:26:48;;;;;;;24.95;14.77;;;0.70;99.90;;;;;;5107207;28;20047;-82
2022/12/09 04:29:14;;;;;;;26.88;16.02;;;0.70;99.90;;;;;;5121716;28;20600;-82
2022/12/09 04:31:39;;;;;;;26.40;15.50;;;0.70;99.90;;;;;;5113198;28;20085;-83
2022/12/09 04:34:05;;;;;;;28.23;16.02;;;0.70;99.90;;;;;;5131535;28;20120;-82
2022/12/09 04:36:31;;;;;;;24.50;15.40;;;0.70;99.90;;;;;;5121613;28;20043;-82
2022/12/09 04:38:56;;;;;;;25.17;15.77;;;0.70;99.90;;;;;;5133803;28;20118;-82
2022/12/09 04:41:22;;;;;;;29.02;16.75;;;0.60;99.90;;;;;;5108453;28;20478;-82
2022/12/09 04:43:48;;;;;;;23.90;15.13;;;0.60;99.90;;;;;;5096926;28;20058;-82
2022/12/09 04:46:18;;;;;;;25.08;15.10;;;0.60;99.90;;;;;;5133219;28;20082;-82
2022/12/09 04:48:44;;;;;;;24.15;14.68;;;0.60;99.90;;;;;;5107658;28;20071;-82
2022/12/09 04:51:11;;;;;;;23.98;15.05;;;0.60;99.90;;;;;;5074026;28;20048;-82
2022/12/09 04:53:37;;;;;;;23.60;14.88;;;0.50;99.90;;;;;;5102406;28;20051;-82
2022/12/09 04:56:06;;;;;;;23.77;14.27;;;0.50;99.90;;;;;;5114698;28;20051;-83
2022/12/09 04:58:32;;;;;;;23.60;13.70;;;0.60;99.90;;;;;;5133520;28;20440;-82
2022/12/09 05:01:03;;;;;;;24.40;15.23;;;0.60;99.90;;;;;;5112280;28;20053;-82
2022/12/09 05:03:29;;;;;;;21.95;14.40;;;1.80;99.90;;;;;;5095894;28;20050;-82
2022/12/09 05:05:54;;;;;;;21.92;14.32;;;0.60;99.90;;;;;;5109957;28;20075;-82
2022/12/09 05:08:20;;;;;;;23.38;14.50;;;0.60;99.90;;;;;;5113116;28;20495;-82
2022/12/09 05:10:48;;;;;;;25.10;14.18;;;0.60;99.90;;;;;;5112424;28;20130;-82
2022/12/09 05:13:13;;;;;;;24.42;14.10;;;0.60;99.90;;;;;;5109484;28;20407;-82
2022/12/09 05:15:39;;;;;;;23.13;13.48;;;0.60;99.90;;;;;;5130910;28;20084;-82
2022/12/09 05:18:04;;;;;;;24.40;14.35;;;0.60;99.90;;;;;;5124150;28;20105;-82
2022/12/09 05:20:30;;;;;;;22.10;13.85;;;0.60;99.90;;;;;;5125071;28;20051;-83
2022/12/09 05:22:56;;;;;;;24.05;14.48;;;0.60;99.90;;;;;;5106988;28;20066;-83
2022/12/09 05:25:22;;;;;;;22.55;15.25;;;0.50;99.90;;;;;;5113525;28;20067;-83
2022/12/09 05:27:48;;;;;;;21.88;14.40;;;0.50;99.90;;;;;;5112702;28;20050;-82
2022/12/09 05:30:14;;;;;;;22.90;14.68;;;0.50;99.90;;;;;;5105803;28;20047;-82
2022/12/09 05:32:40;;;;;;;23.77;14.13;;;0.60;99.90;;;;;;5077788;28;20556;-82
2022/12/09 05:35:06;;;;;;;23.27;14.52;;;1.10;99.90;;;;;;5097682;28;20383;-82
2022/12/09 05:37:32;;;;;;;24.10;14.75;;;0.60;99.90;;;;;;5119700;27;20040;-83
2022/12/09 05:39:57;;;;;;;22.75;14.63;;;0.60;99.90;;;;;;5129317;27;20108;-83
2022/12/09 05:42:23;;;;;;;25.30;15.07;;;0.60;99.90;;;;;;5092355;27;20094;-82
2022/12/09 05:44:48;;;;;;;23.63;15.07;;;0.60;99.90;;;;;;5121216;27;20051;-83
2022/12/09 05:47:14;;;;;;;21.05;14.10;;;1.40;99.90;;;;;;5132024;27;20047;-82
2022/12/09 05:49:39;;;;;;;20.70;13.70;;;0.60;99.90;;;;;;5117870;27;20188;-83
2022/12/09 05:52:05;;;;;;;24.25;14.63;;;0.60;99.90;;;;;;5134549;27;20200;-83
2022/12/09 05:54:31;;;;;;;23.35;13.75;;;1.50;99.90;;;;;;5106351;28;20570;-83
2022/12/09 05:56:56;;;;;;;25.45;14.32;;;0.60;99.90;;;;;;5098082;28;20411;-83
2022/12/09 05:59:23;;;;;;;25.75;14.88;;;0.50;99.90;;;;;;5099407;27;20092;-83
2022/12/09 06:01:49;;;;;;;22.75;14.02;;;0.50;99.90;;;;;;5101524;27;20070;-83
2022/12/09 06:04:15;;;;;;;22.35;13.80;;;1.60;99.90;;;;;;5134538;27;20082;-82
2022/12/09 06:06:41;;;;;;;22.58;13.38;;;0.50;99.90;;;;;;5125118;27;20043;-83
2022/12/09 06:09:10;;;;;;;25.05;13.50;;;0.50;99.90;;;;;;5098298;28;20120;-82
2022/12/09 06:11:37;;;;;;;25.23;13.55;;;0.50;99.90;;;;;;5098823;28;20066;-83
2022/12/09 06:14:04;;;;;;;19.65;12.73;;;0.50;99.90;;;;;;5097103;28;20509;-83
2022/12/09 06:16:29;;;;;;;22.33;13.02;;;0.40;99.90;;;;;;5115549;27;20040;-83
2022/12/09 06:18:55;;;;;;;27.55;14.13;;;0.50;99.90;;;;;;5096647;28;20115;-83
2022/12/09 06:21:21;;;;;;;22.10;13.63;;;0.50;99.90;;;;;;5113941;28;20050;-83
2022/12/09 06:23:48;;;;;;;21.70;13.45;;;0.50;99.90;;;;;;5100459;27;20047;-82
2022/12/09 06:26:23;;;;;;;21.73;12.52;;;0.50;99.90;;;;;;5123323;27;20127;-83
2022/12/09 06:28:49;;;;;;;19.75;12.00;;;0.50;99.90;;;;;;5130407;27;20047;-83
2022/12/09 06:31:15;;;;;;;20.58;12.60;;;0.60;99.90;;;;;;5125035;27;20112;-82
2022/12/09 06:33:41;;;;;;;20.88;13.25;;;0.60;99.90;;;;;;5132637;27;20047;-83
2022/12/09 06:36:07;;;;;;;20.98;13.10;;;0.60;99.90;;;;;;5131027;27;20051;-83
2022/12/09 06:38:33;;;;;;;19.38;12.25;;;0.60;99.90;;;;;;5096485;28;20105;-83
2022/12/09 06:40:59;;;;;;;25.17;13.35;;;0.60;99.90;;;;;;5095502;28;20059;-82
2022/12/09 06:43:24;;;;;;;20.90;12.90;;;0.70;99.90;;;;;;5114613;28;20055;-83
2022/12/09 06:45:50;;;;;;;21.27;13.23;;;0.70;99.90;;;;;;5095846;28;20449;-83
2022/12/09 06:48:16;;;;;;;21.08;12.82;;;0.70;99.90;;;;;;5100279;27;20051;-81
2022/12/09 06:50:41;;;;;;;20.88;13.35;;;0.70;99.90;;;;;;5099416;27;20051;-81
2022/12/09 06:53:08;;;;;;;21.92;13.70;;;0.70;99.90;;;;;;5108951;28;20104;-81
2022/12/09 06:55:33;;;;;;;22.95;14.40;;;0.60;99.90;;;;;;5126133;27;20059;-81
2022/12/09 06:57:59;;;;;;;25.27;14.32;;;1.50;99.90;;;;;;5114508;27;20680;-81
2022/12/09 07:00:25;;;;;;;20.83;13.93;;;0.60;99.90;;;;;;5112304;27;20256;-80
2022/12/09 07:02:52;;;;;;;22.63;14.07;;;0.60;99.90;;;;;;5134597;27;20051;-81
2022/12/09 07:05:18;;;;;;;23.77;14.32;;;0.60;99.90;;;;;;5110254;28;20050;-81
2022/12/09 07:07:48;;;;;;;23.70;14.57;;;0.60;99.90;;;;;;5113172;27;20059;-81
2022/12/09 07:10:13;;;;;;;21.33;14.15;;;0.50;99.90;;;;;;5114122;27;20058;-81
2022/12/09 07:12:39;;;;;;;24.20;14.07;;;0.50;99.90;;;;;;5111362;28;20047;-81
2022/12/09 07:15:05;;;;;;;27.58;14.73;;;0.40;99.90;;;;;;5094893;28;20496;-81
2022/12/09 07:17:31;;;;;;;24.83;14.38;;;0.40;99.90;;;;;;5095153;28;20048;-80
2022/12/09 07:19:56;;;;;;;26.33;14.45;;;0.40;99.90;;;;;;5113784;28;20147;-81
2022/12/09 07:22:22;;;;;;;25.00;13.98;;;0.30;99.90;;;;;;5113996;28;20151;-81
2022/12/09 07:24:48;;;;;;;24.65;14.52;;;0.40;99.90;;;;;;5096316;28;20479;-81
2022/12/09 07:27:14;;;;;;;23.83;14.43;;;0.40;99.90;;;;;;5095112;28;20047;-81
2022/12/09 07:29:40;;;;;;;23.50;14.07;;;1.90;99.90;;;;;;5096046;28;20423;-81
2022/12/09 07:32:08;;;;;;;25.85;14.45;;;0.90;99.90;;;;;;5094894;28;20071;-80
2022/12/09 07:34:34;;;;;;;24.92;14.80;;;0.50;99.90;;;;;;5112046;28;20169;-81
2022/12/09 07:37:00;;;;;;;24.05;14.52;;;0.50;99.90;;;;;;5094862;28;20222;-81
2022/12/09 07:39:25;;;;;;;27.23;15.48;;;2.20;99.90;;;;;;5113246;27;20055;-80
2022/12/09 07:41:56;;;;;;;27.40;15.80;;;0.50;99.90;;;;;;5077200;28;20044;-82
2022/12/09 07:44:23;;;;;;;24.33;15.23;;;0.50;99.90;;;;;;5113538;28;20094;-80
2022/12/09 07:46:48;;;;;;;24.98;14.70;;;0.50;99.90;;;;;;5112767;28;20461;-81
2022/12/09 07:49:15;;;;;;;26.83;16.33;;;0.40;99.90;;;;;;5094961;28;20039;-81
2022/12/09 07:51:41;;;;;;;29.77;16.73;;;0.50;99.90;;;;;;5101719;27;20214;-81
2022/12/09 07:54:13;;;;;;;29.67;17.42;;;0.50;99.90;;;;;;5100032;28;20058;-81
2022/12/09 07:56:39;;;;;;;34.22;19.50;;;0.50;99.90;;;;;;5112302;27;20039;-81
2022/12/09 07:59:06;;;;;;;31.58;18.55;;;0.50;99.90;;;;;;5097640;27;20495;-81
2022/12/09 08:01:32;;;;;;;33.55;19.95;;;0.60;99.90;;;;;;5133681;27;20095;-81
2022/12/09 08:03:58;;;;;;;33.75;19.73;;;2.00;99.90;;;;;;5115352;27;20196;-81
2022/12/09 08:06:25;;;;;;;34.45;19.25;;;0.60;99.90;;;;;;5113376;27;20035;-81
2022/12/09 08:08:52;;;;;;;36.53;20.73;;;0.60;99.90;;;;;;5115693;27;20060;-81
2022/12/09 08:11:23;;;;;;;33.88;20.35;;;0.60;99.90;;;;;;5110925;28;20051;-81
2022/12/09 08:13:49;;;;;;;35.00;20.13;;;0.70;99.90;;;;;;5093221;28;20407;-81
2022/12/09 08:16:16;;;;;;;39.10;21.88;;;2.10;99.90;;;;;;5077832;28;20047;-81
2022/12/09 08:18:43;;;;;;;37.17;21.20;;;0.70;99.90;;;;;;5097368;28;20051;-80
2022/12/09 08:21:12;;;;;;;32.78;18.58;;;0.70;99.90;;;;;;5114023;27;20046;-81
2022/12/09 08:23:38;;;;;;;37.53;20.10;;;2.10;99.90;;;;;;5113725;28;20491;-80
2022/12/09 08:26:04;;;;;;;35.13;19.92;;;0.80;99.90;;;;;;5094360;28;20055;-81
2022/12/09 08:28:30;;;;;;;36.70;20.25;;;0.80;99.90;;;;;;5111284;28;20131;-80
2022/12/09 08:30:56;;;;;;;36.63;20.13;;;0.80;99.90;;;;;;5110895;28;20059;-81
2022/12/09 08:33:22;;;;;;;33.97;19.25;;;0.80;99.90;;;;;;5091711;28;20143;-80
2022/12/09 08:35:47;;;;;;;36.88;19.42;;;0.90;99.90;;;;;;5101113;28;20506;-80
2022/12/09 08:38:13;;;;;;;37.67;19.80;;;1.10;99.90;;;;;;5133025;28;20051;-80
2022/12/09 08:40:39;;;;;;;35.88;19.58;;;1.00;99.90;;;;;;5105468;28;20052;-82
2022/12/09 08:43:07;;;;;;;34.65;19.52;;;1.20;99.90;;;;;;5074248;28;20050;-81
2022/12/09 08:45:37;;;;;;;36.92;18.92;;;1.30;99.90;;;;;;5092316;28;20178;-81
2022/12/09 08:48:03;;;;;;;33.35;18.13;;;1.50;99.90;;;;;;5114235;28;20593;-81
2022/12/09 08:50:30;;;;;;;33.35;17.95;;;1.60;99.90;;;;;;5116463;28;20403;-81
2022/12/09 08:52:55;;;;;;;33.40;18.75;;;2.50;99.90;;;;;;5102901;28;20055;-82
2022/12/09 08:55:21;;;;;;;32.17;18.45;;;1.60;99.90;;;;;;5112643;28;20051;-81
2022/12/09 08:57:47;;;;;;;34.00;19.35;;;2.70;99.90;;;;;;5094472;28;20102;-82
2022/12/09 09:00:13;;;;;;;33.50;18.70;;;1.60;99.90;;;;;;5094644;28;20056;-81
2022/12/09 09:02:39;;;;;;;32.08;18.17;;;1.80;99.90;;;;;;5092883;28;20508;-83
2022/12/09 09:05:05;;;;;;;33.15;18.10;;;1.80;99.90;;;;;;5116209;28;20126;-82
2022/12/09 09:07:31;;;;;;;31.23;18.60;;;1.70;99.90;;;;;;5097653;28;20545;-82
2022/12/09 09:09:59;;;;;;;31.80;17.45;;;1.70;99.90;;;;;;5098354;28;20055;-83
2022/12/09 09:12:25;;;;;;;32.60;18.08;;;2.20;99.90;;;;;;5082834;28;20103;-82
2022/12/09 09:14:53;;;;;;;37.15;20.65;;;1.70;99.90;;;;;;5118245;27;20101;-81
2022/12/09 09:17:21;;;;;;;35.08;19.52;;;1.70;99.90;;;;;;5097834;28;20054;-82
2022/12/09 09:19:46;;;;;;;38.10;20.13;;;1.70;99.90;;;;;;5116383;28;20445;-82
2022/12/09 09:22:12;;;;;;;39.25;19.60;;;1.70;99.90;;;;;;5116651;27;20230;-82
2022/12/09 09:24:38;;;;;;;38.38;20.17;;;1.80;99.90;;;;;;5116354;28;20459;-82
2022/12/09 09:27:03;;;;;;;44.97;21.02;;;1.80;99.90;;;;;;5115788;27;20502;-81
2022/12/09 09:29:29;;;;;;;36.97;19.80;;;1.90;99.90;;;;;;5128450;27;20048;-83
2022/12/09 09:31:56;;;;;;;36.53;19.40;;;2.50;99.90;;;;;;5124118;27;20078;-82
2022/12/09 09:34:22;;;;;;;34.05;18.45;;;2.40;99.90;;;;;;5123370;27;20423;-82
2022/12/09 09:36:49;;;;;;;32.78;18.73;;;2.60;99.90;;;;;;5097399;28;20121;-84
2022/12/09 09:39:16;;;;;;;37.00;18.83;;;2.60;99.90;;;;;;5064203;28;20075;-82
2022/12/09 09:41:41;;;;;;;40.03;19.63;;;2.60;99.90;;;;;;5098629;28;20048;-82
2022/12/09 09:44:29;;;;;;;34.58;18.70;;;2.50;99.90;;;;;;5099295;28;20139;-81
2022/12/09 09:46:56;;;;;;;34.58;19.25;;;2.40;99.90;;;;;;5115712;28;20099;-81
2022/12/09 09:49:42;;;;;;;33.28;18.65;;;2.40;99.90;;;;;;5097697;28;20430;-80
2022/12/09 09:52:15;;;;;;;34.13;18.67;;;2.20;99.90;;;;;;5079959;28;20503;-80
2022/12/09 09:54:41;;;;;;;37.85;18.00;;;1.80;99.90;;;;;;5115826;27;20055;-81
2022/12/09 09:57:45;;;;;;;38.20;18.83;;;2.00;99.90;;;;;;5117654;27;20073;-82
2022/12/09 10:00:25;;;;;;;34.63;19.15;;;2.00;99.90;;;;;;5069886;27;20054;-81
2022/12/09 10:03:08;;;;;;;41.67;19.15;;;2.50;99.90;;;;;;5102927;28;20083;-80
2022/12/09 10:05:37;;;;;;;40.08;19.75;;;1.60;99.90;;;;;;5134697;27;20047;-82
2022/12/09 10:08:38;;;;;;;40.15;19.40;;;1.50;99.90;;;;;;5129460;27;20070;-80
2022/12/09 10:11:16;;;;;;;47.22;20.17;;;1.50;99.90;;;;;;5096168;28;20054;-83
2022/12/09 10:14:04;;;;;;;41.67;19.40;;;1.40;99.90;;;;;;5096677;28;20047;-82
2022/12/09 10:16:49;;;;;;;38.78;18.08;;;3.10;99.90;;;;;;5096654;28;20152;-84
2022/12/09 10:19:30;;;;;;;49.20;17.33;;;1.50;99.90;;;;;;5114565;28;20492;-82
2022/12/09 10:21:58;;;;;;;38.45;19.52;;;1.50;99.90;;;;;;5076979;28;20491;-82
2022/12/09 10:24:32;;;;;;;53.35;18.52;;;1.40;99.90;;;;;;5096348;28;20395;-83
2022/12/09 10:27:12;;;;;;;52.50;19.55;;;1.40;99.90;;;;;;5084367;27;20056;-83
2022/12/09 10:29:59;;;;;;;35.40;18.35;;;2.40;99.90;;;;;;5132974;27;20035;-83
2022/12/09 10:32:29;;;;;;;34.95;18.50;;;1.80;99.90;;;;;;5135498;27;20098;-83
2022/12/09 10:34:55;;;;;;;29.90;16.90;;;2.00;99.90;;;;;;5136038;27;20055;-84
2022/12/09 10:37:34;;;;;;;30.40;16.73;;;2.30;99.90;;;;;;5116604;27;20047;-84
2022/12/09 10:40:06;;;;;;;32.35;16.75;;;2.60;99.90;;;;;;5108689;28;20051;-84
2022/12/09 10:45:53;;;;;;;29.63;16.88;;;2.20;99.90;;;;;;5097237;28;20105;-84
2022/12/09 10:48:28;;;;;;;31.33;16.90;;;3.20;99.90;;;;;;5095622;28;20052;-84
2022/12/09 10:50:57;;;;;;;31.60;17.83;;;2.90;99.90;;;;;;5093751;28;20050;-85
2022/12/09 10:53:23;;;;;;;31.70;17.70;;;3.50;99.90;;;;;;5079414;28;20121;-84
2022/12/09 10:55:51;;;;;;;41.83;16.85;;;2.10;99.90;;;;;;5096527;28;20399;-84
2022/12/09 10:58:24;;;;;;;33.35;18.00;;;2.00;99.90;;;;;;5079533;28;20048;-83
2022/12/09 11:01:08;;;;;;;35.63;18.75;;;3.10;99.90;;;;;;5096483;28;20392;-83
2022/12/09 11:03:39;;;;;;;33.47;18.17;;;1.80;99.90;;;;;;5114077;28;20459;-83
2022/12/09 11:06:20;;;;;;;33.20;16.98;;;1.80;99.90;;;;;;5095453;28;20051;-83
2022/12/09 11:09:00;;;;;;;33.83;18.42;;;1.80;99.90;;;;;;5078398;28;20085;-83
2022/12/09 11:11:46;;;;;;;33.40;17.92;;;1.10;99.90;;;;;;5115335;28;20044;-83
2022/12/09 11:14:22;;;;;;;31.40;18.70;;;2.90;99.90;;;;;;5115437;28;20067;-83
2022/12/09 11:16:54;;;;;;;30.52;17.45;;;3.00;99.90;;;;;;5113840;28;20055;-84
2022/12/09 11:20:03;;;;;;;31.40;16.63;;;1.60;99.90;;;;;;5095993;28;20051;-83
2022/12/09 11:22:41;;;;;;;29.30;16.02;;;1.80;99.90;;;;;;5069531;28;20054;-83
2022/12/09 11:25:25;;;;;;;30.85;17.33;;;1.70;99.90;;;;;;5095515;28;20100;-83
2022/12/09 11:27:53;;;;;;;23.95;13.20;;;1.70;99.90;;;;;;5078298;28;20441;-83
2022/12/09 11:30:58;;;;;;;32.38;18.27;;;1.60;99.90;;;;;;5078402;28;20055;-83
2022/12/09 11:33:34;;;;;;;31.55;17.20;;;1.60;99.90;;;;;;5093671;28;20395;-83
2022/12/09 11:36:04;;;;;;;34.85;17.90;;;1.50;99.90;;;;;;5113344;28;20087;-80
2022/12/09 11:38:29;;;;;;;31.33;17.25;;;1.50;99.90;;;;;;5112296;28;20091;-85
2022/12/09 11:41:04;;;;;;;41.40;18.92;;;1.50;99.90;;;;;;5080406;28;20162;-86
2022/12/09 11:43:38;;;;;;;31.10;17.48;;;1.60;99.90;;;;;;5094250;28;20135;-85
2022/12/09 11:46:11;;;;;;;35.22;18.00;;;1.60;99.90;;;;;;5058376;28;20047;-82
2022/12/09 11:48:38;;;;;;;32.00;18.95;;;1.70;99.90;;;;;;5076241;28;20051;-83
2022/12/09 11:51:05;;;;;;;32.47;18.15;;;3.30;99.90;;;;;;5075927;28;20112;-81
2022/12/09 11:53:32;;;;;;;33.97;18.13;;;2.90;99.90;;;;;;5093677;28;20079;-82
2022/12/09 11:56:21;;;;;;;36.03;17.73;;;1.60;99.90;;;;;;5092565;28;20131;-83
2022/12/09 11:58:53;;;;;;;39.90;17.95;;;1.70;99.90;;;;;;5074401;28;20052;-81
2022/12/09 12:01:39;;;;;;;44.47;19.92;;;1.70;99.90;;;;;;5074316;28;20071;-86
2022/12/09 12:04:09;;;;;;;43.53;19.02;;;1.60;99.90;;;;;;5062398;28;20143;-87
2022/12/09 12:06:59;;;;;;;46.63;19.10;;;2.60;99.90;;;;;;5094362;28;20055;-87
2022/12/09 12:09:31;;;;;;;34.55;18.77;;;1.60;99.90;;;;;;5077943;28;20048;-86
2022/12/09 12:12:22;;;;;;;40.83;19.50;;;1.60;99.90;;;;;;5093963;28;20040;-86
2022/12/09 12:14:48;;;;;;;40.30;18.75;;;1.70;99.90;;;;;;5109376;27;20127;-87
2022/12/09 12:17:37;;;;;;;38.35;19.17;;;3.20;99.90;;;;;;5101074;27;20092;-84
2022/12/09 12:20:04;;;;;;;36.28;19.55;;;1.60;99.90;;;;;;5129972;27;20448;-85
2022/12/09 12:23:04;;;;;;;36.10;18.70;;;1.60;99.90;;;;;;5094548;28;20078;-85
2022/12/09 12:25:44;;;;;;;32.85;18.13;;;1.50;99.90;;;;;;5095185;28;20051;-85
2022/12/09 12:28:25;;;;;;;33.55;18.00;;;1.50;99.90;;;;;;5095705;28;20051;-84
2022/12/09 12:31:48;;;;;;;37.30;19.15;;;1.60;99.90;;;;;;5113887;28;20139;-84
2022/12/09 12:34:18;;;;;;;37.75;17.70;;;1.60;99.90;;;;;;4997343;28;20192;-84
2022/12/09 12:37:16;;;;;;;39.10;20.15;;;1.90;99.90;;;;;;5010194;28;20436;-85
2022/12/09 12:40:19;;;;;;;34.63;19.88;;;1.60;99.90;;;;;;5090498;28;20151;-84
2022/12/09 12:48:53;;;;;;;36.72;20.55;;;2.20;99.90;;;;;;5119284;27;20047;-84
2022/12/09 12:51:56;;;;;;;37.38;19.95;;;1.50;99.90;;;;;;5120414;27;20055;-85
2022/12/09 12:54:52;;;;;;;36.50;19.85;;;1.50;99.90;;;;;;5120066;27;20406;-84
2022/12/09 12:57:45;;;;;;;36.88;20.08;;;1.50;99.90;;;;;;5119284;27;20337;-84
2022/12/09 13:00:19;;;;;;;37.05;20.65;;;1.40;99.90;;;;;;5119163;27;20447;-85
2022/12/09 13:03:04;;;;;;;39.05;20.52;;;1.50;99.90;;;;;;5118146;27;20494;-84